Grass Valley, CA (95945)

1:03 PM PDT on July 23, 2016 (GMT -0700)
Peardale | | Change Station

Elev 2697 ft 39.18 °N, 120.97 °W | Updated 21 seconds ago

Clear
Clear
91.0 °F
Feels Like 87 °F
N
2.0
Wind Variable Wind from NE
Gusts 4.0 mph

Today
High -- | Low -- °F
--% Chance of Precip.
Yesterday
High -- | Low -- °F
Precip. -- in
Pressure 30.00 in
Visibility 10.0 miles
Clouds Clear
Heat Index 87 °F
Dew Point 39 °F
Humidity 16%
Rainfall 0.00 in
Snow Depth Not available.
5:56 AM 8:23 PM
Waning Gibbous, 83% visible
METAR KAUN 231955Z AUTO 28006KT 040V050 10SM CLR 33/05 A3000 RMK AO1
Pressure 30.00 in
Visibility 10.0 miles
Clouds Clear
Heat Index 87 °F
Dew Point 39 °F
Humidity 16%
Rainfall 0.00 in
Snow Depth Not available.
5:56 AM 8:23 PM
Waning Gibbous, 83% visible
METAR KAUN 231955Z AUTO 28006KT 040V050 10SM CLR 33/05 A3000 RMK AO1

10-Day Weather Forecast

Almanac

Astronomy

Jul. 23, 2016 Rise Set
Actual Time
Civil Twilight
Nautical Twilight
Astronomical Twilight
Moon
Length of Visible Light
Length of Day
Tomorrow will be .
, % of the Moon is Illuminated

Today's Extremes

State Highs State Lows

Community

WunderPhotos

Upload Photos

1,926,909 photos uploaded!

WunderBlog® & News

Nearby

Air Quality

  Air Quality AQ Index Pollutant
Not available.

Snow Depth

Station Depth Elevation

Earthquake Activity

City Distance Mag. Time & Date
Minimum magnitude displayed is 2.5.

Coastal Water Temperatures

Place Temperature

Stations

Nearby Weather Stations

Station Location Temp. Windchill Dew Point Humidity Wind Precip. Elev Updated Type
                   

Watches & Warnings

There are currently no watches in effect.